sensor_id;sensor_type;location;lat;lon;timestamp;pressure;altitude;pressure_sealevel;temperature;humidity
30421;BME280;17218;54.070;10.012;2023-07-13T00:02:11;100990.69;;;15.49;100.00
30421;BME280;17218;54.070;10.012;2023-07-13T00:04:37;100987.09;;;15.53;100.00
30421;BME280;17218;54.070;10.012;2023-07-13T00:07:04;100995.81;;;15.52;100.00
30421;BME280;17218;54.070;10.012;2023-07-13T00:09:32;100997.72;;;15.45;100.00
30421;BME280;17218;54.070;10.012;2023-07-13T00:11:58;100994.94;;;15.52;100.00
30421;BME280;17218;54.070;10.012;2023-07-13T00:14:27;100993.94;;;15.57;100.00
30421;BME280;17218;54.070;10.012;2023-07-13T00:16:54;100994.72;;;15.62;100.00
30421;BME280;17218;54.070;10.012;2023-07-13T00:19:21;100992.94;;;15.63;100.00
30421;BME280;17218;54.070;10.012;2023-07-13T00:21:48;100998.16;;;15.63;100.00
30421;BME280;17218;54.070;10.012;2023-07-13T00:24:16;100988.66;;;15.60;100.00
30421;BME280;17218;54.070;10.012;2023-07-13T00:26:49;100991.16;;;15.65;100.00
30421;BME280;17218;54.070;10.012;2023-07-13T00:29:16;100986.84;;;15.64;100.00
30421;BME280;17218;54.070;10.012;2023-07-13T00:31:43;100983.22;;;15.70;100.00
30421;BME280;17218;54.070;10.012;2023-07-13T00:34:10;100985.72;;;15.74;100.00
30421;BME280;17218;54.070;10.012;2023-07-13T00:36:36;100988.31;;;15.74;100.00
30421;BME280;17218;54.070;10.012;2023-07-13T00:39:03;100994.38;;;15.77;100.00
30421;BME280;17218;54.070;10.012;2023-07-13T00:41:30;100990.88;;;15.76;100.00
30421;BME280;17218;54.070;10.012;2023-07-13T00:43:58;100997.03;;;15.75;100.00
30421;BME280;17218;54.070;10.012;2023-07-13T00:46:27;100984.00;;;15.73;100.00
30421;BME280;17218;54.070;10.012;2023-07-13T00:48:55;100995.19;;;15.79;100.00
30421;BME280;17218;54.070;10.012;2023-07-13T00:51:31;100995.16;;;15.80;100.00
30421;BME280;17218;54.070;10.012;2023-07-13T00:54:00;100991.75;;;15.77;100.00
30421;BME280;17218;54.070;10.012;2023-07-13T00:56:28;100988.22;;;15.78;100.00
30421;BME280;17218;54.070;10.012;2023-07-13T00:58:55;100997.81;;;15.79;100.00
30421;BME280;17218;54.070;10.012;2023-07-13T01:01:26;101000.56;;;15.72;100.00
30421;BME280;17218;54.070;10.012;2023-07-13T01:03:52;100998.81;;;15.73;100.00
30421;BME280;17218;54.070;10.012;2023-07-13T01:06:19;100996.19;;;15.73;100.00
30421;BME280;17218;54.070;10.012;2023-07-13T01:08:46;100992.63;;;15.76;100.00
30421;BME280;17218;54.070;10.012;2023-07-13T01:11:18;100985.75;;;15.73;100.00
30421;BME280;17218;54.070;10.012;2023-07-13T01:13:45;100996.50;;;15.60;100.00
30421;BME280;17218;54.070;10.012;2023-07-13T01:16:18;100994.78;;;15.59;100.00
30421;BME280;17218;54.070;10.012;2023-07-13T01:18:47;100990.41;;;15.60;100.00
30421;BME280;17218;54.070;10.012;2023-07-13T01:21:14;100985.25;;;15.58;100.00
30421;BME280;17218;54.070;10.012;2023-07-13T01:23:41;100998.16;;;15.63;100.00
30421;BME280;17218;54.070;10.012;2023-07-13T01:26:09;100993.06;;;15.58;100.00
30421;BME280;17218;54.070;10.012;2023-07-13T01:28:36;100981.53;;;15.67;100.00
30421;BME280;17218;54.070;10.012;2023-07-13T01:31:03;100992.06;;;15.64;100.00
30421;BME280;17218;54.070;10.012;2023-07-13T01:33:30;100987.69;;;15.65;100.00
30421;BME280;17218;54.070;10.012;2023-07-13T01:35:56;100979.84;;;15.65;100.00
30421;BME280;17218;54.070;10.012;2023-07-13T01:38:24;100984.16;;;15.67;100.00
30421;BME280;17218;54.070;10.012;2023-07-13T01:40:51;100982.41;;;15.68;100.00
30421;BME280;17218;54.070;10.012;2023-07-13T01:43:18;100986.03;;;15.62;100.00
30421;BME280;17218;54.070;10.012;2023-07-13T01:45:45;100985.97;;;15.64;100.00
30421;BME280;17218;54.070;10.012;2023-07-13T01:48:12;100987.69;;;15.65;100.00
30421;BME280;17218;54.070;10.012;2023-07-13T01:50:39;100977.22;;;15.65;100.00
30421;BME280;17218;54.070;10.012;2023-07-13T01:53:06;100980.63;;;15.68;100.00
30421;BME280;17218;54.070;10.012;2023-07-13T01:55:34;100980.63;;;15.68;100.00
30421;BME280;17218;54.070;10.012;2023-07-13T01:58:01;100971.22;;;15.61;100.00
30421;BME280;17218;54.070;10.012;2023-07-13T02:00:27;100982.59;;;15.60;100.00
30421;BME280;17218;54.070;10.012;2023-07-13T02:02:54;100973.19;;;15.53;100.00
30421;BME280;17218;54.070;10.012;2023-07-13T02:05:20;100977.47;;;15.55;100.00
30421;BME280;17218;54.070;10.012;2023-07-13T02:07:47;100973.06;;;15.57;100.00
30421;BME280;17218;54.070;10.012;2023-07-13T02:10:14;100970.41;;;15.59;100.00
30421;BME280;17218;54.070;10.012;2023-07-13T02:12:42;100981.72;;;15.59;100.00
30421;BME280;17218;54.070;10.012;2023-07-13T02:15:09;100979.19;;;15.56;100.00
30421;BME280;17218;54.070;10.012;2023-07-13T02:17:36;100980.91;;;15.57;100.00
30421;BME280;17218;54.070;10.012;2023-07-13T02:20:04;100992.34;;;15.52;100.00
30421;BME280;17218;54.070;10.012;2023-07-13T02:22:31;100986.97;;;15.58;100.00
30421;BME280;17218;54.070;10.012;2023-07-13T02:24:58;100994.00;;;15.56;100.00
30421;BME280;17218;54.070;10.012;2023-07-13T02:27:24;100981.03;;;15.53;100.00
30421;BME280;17218;54.070;10.012;2023-07-13T02:29:52;100981.16;;;15.46;100.00
30421;BME280;17218;54.070;10.012;2023-07-13T02:32:19;100991.81;;;15.37;100.00
30421;BME280;17218;54.070;10.012;2023-07-13T02:34:45;100990.19;;;15.33;100.00
30421;BME280;17218;54.070;10.012;2023-07-13T02:37:12;100986.56;;;15.38;100.00
30421;BME280;17218;54.070;10.012;2023-07-13T02:39:38;100980.34;;;15.44;100.00
30421;BME280;17218;54.070;10.012;2023-07-13T02:42:06;100978.59;;;15.45;100.00
30421;BME280;17218;54.070;10.012;2023-07-13T02:44:32;100972.41;;;15.49;100.00
30421;BME280;17218;54.070;10.012;2023-07-13T02:47:00;100981.97;;;15.48;100.00
30421;BME280;17218;54.070;10.012;2023-07-13T02:49:27;100976.81;;;15.47;100.00
30421;BME280;17218;54.070;10.012;2023-07-13T02:51:53;100983.84;;;15.43;100.00
30421;BME280;17218;54.070;10.012;2023-07-13T02:54:19;100974.19;;;15.47;100.00
30421;BME280;17218;54.070;10.012;2023-07-13T02:56:46;100972.63;;;15.40;100.00
30421;BME280;17218;54.070;10.012;2023-07-13T02:59:12;100981.31;;;15.40;100.00
30421;BME280;17218;54.070;10.012;2023-07-13T03:01:39;100974.41;;;15.37;100.00
30421;BME280;17218;54.070;10.012;2023-07-13T03:04:07;100973.53;;;15.37;100.00
30421;BME280;17218;54.070;10.012;2023-07-13T03:06:34;100972.63;;;15.40;100.00
30421;BME280;17218;54.070;10.012;2023-07-13T03:09:01;100973.50;;;15.40;100.00
30421;BME280;17218;54.070;10.012;2023-07-13T03:11:29;100976.22;;;15.34;100.00
30421;BME280;17218;54.070;10.012;2023-07-13T03:13:56;100979.63;;;15.37;100.00
30421;BME280;17218;54.070;10.012;2023-07-13T03:16:23;100977.94;;;15.36;100.00
30421;BME280;17218;54.070;10.012;2023-07-13T03:18:49;100970.06;;;15.38;100.00
30421;BME280;17218;54.070;10.012;2023-07-13T03:21:17;100969.22;;;15.36;100.00
30421;BME280;17218;54.070;10.012;2023-07-13T03:23:44;100971.06;;;15.32;100.00
30421;BME280;17218;54.070;10.012;2023-07-13T03:26:12;100978.03;;;15.32;100.00
30421;BME280;17218;54.070;10.012;2023-07-13T03:28:40;100969.28;;;15.34;100.00
30421;BME280;17218;54.070;10.012;2023-07-13T03:31:08;100965.97;;;15.26;100.00
30421;BME280;17218;54.070;10.012;2023-07-13T03:33:36;100967.75;;;15.25;100.00
30421;BME280;17218;54.070;10.012;2023-07-13T03:36:03;100974.78;;;15.22;100.00
30421;BME280;17218;54.070;10.012;2023-07-13T03:38:32;100978.19;;;15.25;100.00
30421;BME280;17218;54.070;10.012;2023-07-13T03:40:59;100981.53;;;15.31;100.00
30421;BME280;17218;54.070;10.012;2023-07-13T03:43:26;100977.97;;;15.33;100.00
30421;BME280;17218;54.070;10.012;2023-07-13T03:45:53;100982.38;;;15.33;100.00
30421;BME280;17218;54.070;10.012;2023-07-13T03:48:19;100984.97;;;15.31;100.00
30421;BME280;17218;54.070;10.012;2023-07-13T03:50:47;100981.41;;;15.35;100.00
30421;BME280;17218;54.070;10.012;2023-07-13T03:53:14;100981.31;;;15.40;100.00
30421;BME280;17218;54.070;10.012;2023-07-13T03:55:42;100986.56;;;15.38;100.00
30421;BME280;17218;54.070;10.012;2023-07-13T03:58:30;100991.75;;;15.40;100.00
30421;BME280;17218;54.070;10.012;2023-07-13T04:00:58;100992.59;;;15.41;100.00
30421;BME280;17218;54.070;10.012;2023-07-13T04:03:25;100980.53;;;15.35;100.00
30421;BME280;17218;54.070;10.012;2023-07-13T04:05:53;100992.59;;;15.42;100.00
30421;BME280;17218;54.070;10.012;2023-07-13T04:08:19;100990.69;;;15.49;100.00
30421;BME280;17218;54.070;10.012;2023-07-13T04:10:47;100987.97;;;15.52;100.00
30421;BME280;17218;54.070;10.012;2023-07-13T04:13:14;100994.13;;;15.51;100.00
30421;BME280;17218;54.070;10.012;2023-07-13T04:15:40;100998.38;;;15.54;100.00
30421;BME280;17218;54.070;10.012;2023-07-13T04:18:07;100994.81;;;15.58;100.00
30421;BME280;17218;54.070;10.012;2023-07-13T04:20:34;100987.84;;;15.58;100.00
30421;BME280;17218;54.070;10.012;2023-07-13T04:23:01;100994.94;;;15.53;100.00
30421;BME280;17218;54.070;10.012;2023-07-13T04:25:27;101001.72;;;15.60;100.00
30421;BME280;17218;54.070;10.012;2023-07-13T04:27:56;101004.03;;;15.73;100.00
30421;BME280;17218;54.070;10.012;2023-07-13T04:30:22;101001.22;;;15.81;100.00
30421;BME280;17218;54.070;10.012;2023-07-13T04:32:51;100997.66;;;15.83;100.00
30421;BME280;17218;54.070;10.012;2023-07-13T04:35:18;100999.34;;;15.86;100.00
30421;BME280;17218;54.070;10.012;2023-07-13T04:37:45;100998.63;;;15.79;100.00
30421;BME280;17218;54.070;10.012;2023-07-13T04:40:12;100996.00;;;15.81;100.00
30421;BME280;17218;54.070;10.012;2023-07-13T04:42:38;100989.84;;;15.83;100.00
30421;BME280;17218;54.070;10.012;2023-07-13T04:45:07;100996.75;;;15.86;100.00
30421;BME280;17218;54.070;10.012;2023-07-13T04:47:34;100999.22;;;15.91;100.00
30421;BME280;17218;54.070;10.012;2023-07-13T04:50:00;101005.47;;;15.85;100.00
30421;BME280;17218;54.070;10.012;2023-07-13T04:52:27;101010.41;;;15.96;100.00
30421;BME280;17218;54.070;10.012;2023-07-13T04:54:53;101007.72;;;16.01;100.00
30421;BME280;17218;54.070;10.012;2023-07-13T04:57:20;100998.97;;;16.02;100.00
30421;BME280;17218;54.070;10.012;2023-07-13T04:59:46;101008.41;;;16.07;100.00
30421;BME280;17218;54.070;10.012;2023-07-13T05:02:14;101003.84;;;16.16;100.00
30421;BME280;17218;54.070;10.012;2023-07-13T05:04:41;101005.47;;;16.20;100.00
30421;BME280;17218;54.070;10.012;2023-07-13T05:07:07;101010.69;;;16.20;100.00
30421;BME280;17218;54.070;10.012;2023-07-13T05:09:34;101002.66;;;16.28;100.00
30421;BME280;17218;54.070;10.012;2023-07-13T05:12:00;101018.28;;;16.31;100.00
30421;BME280;17218;54.070;10.012;2023-07-13T05:14:27;101012.78;;;16.40;100.00
30421;BME280;17218;54.070;10.012;2023-07-13T05:16:53;101015.13;;;16.50;100.00
30421;BME280;17218;54.070;10.012;2023-07-13T05:19:21;101015.91;;;16.53;100.00
30421;BME280;17218;54.070;10.012;2023-07-13T05:21:47;101020.97;;;16.60;100.00
30421;BME280;17218;54.070;10.012;2023-07-13T05:24:14;101019.03;;;16.66;100.00
30421;BME280;17218;54.070;10.012;2023-07-13T05:26:40;101022.31;;;16.75;100.00
30421;BME280;17218;54.070;10.012;2023-07-13T05:29:06;101023.06;;;16.78;100.00
30421;BME280;17218;54.070;10.012;2023-07-13T05:31:33;101016.75;;;16.86;100.00
30421;BME280;17218;54.070;10.012;2023-07-13T05:33:59;101018.28;;;16.93;100.00
30421;BME280;17218;54.070;10.012;2023-07-13T05:36:27;101003.53;;;16.90;100.00
30421;BME280;17218;54.070;10.012;2023-07-13T05:38:54;101019.19;;;16.92;100.00
30421;BME280;17218;54.070;10.012;2023-07-13T05:41:20;101019.88;;;16.99;100.00
30421;BME280;17218;54.070;10.012;2023-07-13T05:43:46;101023.28;;;17.01;100.00
30421;BME280;17218;54.070;10.012;2023-07-13T05:46:13;101017.97;;;17.04;100.00
30421;BME280;17218;54.070;10.012;2023-07-13T05:48:39;101024.09;;;17.03;100.00
30421;BME280;17218;54.070;10.012;2023-07-13T05:51:06;101030.84;;;17.12;100.00
30421;BME280;17218;54.070;10.012;2023-07-13T05:53:34;101032.72;;;17.07;100.00
30421;BME280;17218;54.070;10.012;2023-07-13T05:56:01;101042.13;;;17.14;100.00
30421;BME280;17218;54.070;10.012;2023-07-13T05:58:27;101035.66;;;17.26;100.00
30421;BME280;17218;54.070;10.012;2023-07-13T06:01:00;101031.38;;;17.23;100.00
30421;BME280;17218;54.070;10.012;2023-07-13T06:03:27;101033.78;;;17.29;100.00
30421;BME280;17218;54.070;10.012;2023-07-13T06:05:53;101035.66;;;17.26;100.00
30421;BME280;17218;54.070;10.012;2023-07-13T06:08:20;101031.13;;;17.31;100.00
30421;BME280;17218;54.070;10.012;2023-07-13T06:10:48;101032.75;;;17.35;100.00
30421;BME280;17218;54.070;10.012;2023-07-13T06:13:14;101032.03;;;17.30;100.00
30421;BME280;17218;54.070;10.012;2023-07-13T06:15:41;101029.25;;;17.36;100.00
30421;BME280;17218;54.070;10.012;2023-07-13T06:18:07;101022.47;;;17.29;100.00
30421;BME280;17218;54.070;10.012;2023-07-13T06:20:34;101023.25;;;17.33;100.00
30421;BME280;17218;54.070;10.012;2023-07-13T06:23:01;101028.16;;;17.44;100.00
30421;BME280;17218;54.070;10.012;2023-07-13T06:25:28;101030.72;;;17.45;100.00
30421;BME280;17218;54.070;10.012;2023-07-13T06:27:55;101047.19;;;17.49;100.00
30421;BME280;17218;54.070;10.012;2023-07-13T06:30:22;101041.13;;;17.47;100.00
30421;BME280;17218;54.070;10.012;2023-07-13T06:32:49;101029.44;;;17.57;100.00
30421;BME280;17218;54.070;10.012;2023-07-13T06:35:15;101041.66;;;17.58;100.00
30421;BME280;17218;54.070;10.012;2023-07-13T06:37:41;101042.84;;;17.48;100.00
30421;BME280;17218;54.070;10.012;2023-07-13T06:40:09;101039.13;;;17.55;100.00
30421;BME280;17218;54.070;10.012;2023-07-13T06:42:35;101042.13;;;17.70;100.00
30421;BME280;17218;54.070;10.012;2023-07-13T06:45:06;101040.44;;;17.69;100.00
30421;BME280;17218;54.070;10.012;2023-07-13T06:47:32;101033.59;;;17.64;100.00
30421;BME280;17218;54.070;10.012;2023-07-13T06:49:59;101037.06;;;17.65;100.00
30421;BME280;17218;54.070;10.012;2023-07-13T06:52:26;101040.56;;;17.66;100.00
30421;BME280;17218;54.070;10.012;2023-07-13T06:54:52;101038.28;;;17.55;100.00
30421;BME280;17218;54.070;10.012;2023-07-13T06:57:19;101038.56;;;17.45;100.00
30421;BME280;17218;54.070;10.012;2023-07-13T06:59:45;101047.19;;;17.49;100.00
30421;BME280;17218;54.070;10.012;2023-07-13T07:02:13;101044.56;;;17.49;100.00
30421;BME280;17218;54.070;10.012;2023-07-13T07:04:40;101041.53;;;17.61;100.00
30421;BME280;17218;54.070;10.012;2023-07-13T07:07:06;101044.06;;;17.64;100.00
30421;BME280;17218;54.070;10.012;2023-07-13T07:09:33;101037.88;;;17.67;100.00
30421;BME280;17218;54.070;10.012;2023-07-13T07:11:59;101033.34;;;17.72;100.00
30421;BME280;17218;54.070;10.012;2023-07-13T07:14:26;101041.59;;;17.87;100.00
30421;BME280;17218;54.070;10.012;2023-07-13T07:16:52;101041.84;;;18.06;100.00
30421;BME280;17218;54.070;10.012;2023-07-13T07:19:20;101034.63;;;18.13;100.00
30421;BME280;17218;54.070;10.012;2023-07-13T07:21:46;101036.44;;;18.11;100.00
30421;BME280;17218;54.070;10.012;2023-07-13T07:24:13;101045.09;;;18.13;100.00
30421;BME280;17218;54.070;10.012;2023-07-13T07:26:40;101043.41;;;18.12;100.00
30421;BME280;17218;54.070;10.012;2023-07-13T07:29:13;101030.38;;;18.09;100.00
30421;BME280;17218;54.070;10.012;2023-07-13T07:31:39;101037.28;;;18.11;100.00
30421;BME280;17218;54.070;10.012;2023-07-13T07:34:06;101031.75;;;18.21;100.00
30421;BME280;17218;54.070;10.012;2023-07-13T07:36:34;101028.91;;;18.27;100.00
30421;BME280;17218;54.070;10.012;2023-07-13T07:39:00;101019.47;;;18.23;100.00
30421;BME280;17218;54.070;10.012;2023-07-13T07:41:27;101020.03;;;18.31;100.00
30421;BME280;17218;54.070;10.012;2023-07-13T07:43:53;101026.63;;;18.43;100.00
30421;BME280;17218;54.070;10.012;2023-07-13T07:46:19;101023.13;;;18.43;100.00
30421;BME280;17218;54.070;10.012;2023-07-13T07:48:46;101023.13;;;18.43;100.00
30421;BME280;17218;54.070;10.012;2023-07-13T07:51:12;101030.72;;;18.51;100.00
30421;BME280;17218;54.070;10.012;2023-07-13T07:53:40;101028.78;;;18.56;100.00
30421;BME280;17218;54.070;10.012;2023-07-13T07:56:07;101029.75;;;18.53;100.00
30421;BME280;17218;54.070;10.012;2023-07-13T07:58:33;101024.34;;;18.58;100.00
30421;BME280;17218;54.070;10.012;2023-07-13T08:01:04;101034.50;;;18.43;100.00
30421;BME280;17218;54.070;10.012;2023-07-13T08:03:31;101034.16;;;18.53;100.00
30421;BME280;17218;54.070;10.012;2023-07-13T08:05:57;101032.31;;;18.79;100.00
30421;BME280;17218;54.070;10.012;2023-07-13T08:08:24;101015.66;;;19.04;100.00
30421;BME280;17218;54.070;10.012;2023-07-13T08:10:52;101021.38;;;19.15;100.00
30421;BME280;17218;54.070;10.012;2023-07-13T08:13:19;101018.41;;;19.23;100.00
30421;BME280;17218;54.070;10.012;2023-07-13T08:15:46;101003.97;;;19.35;100.00
30421;BME280;17218;54.070;10.012;2023-07-13T08:18:13;101008.63;;;19.49;100.00
30421;BME280;17218;54.070;10.012;2023-07-13T08:20:40;101015.41;;;19.55;100.00
30421;BME280;17218;54.070;10.012;2023-07-13T08:23:09;101005.19;;;19.70;100.00
30421;BME280;17218;54.070;10.012;2023-07-13T08:25:36;101006.06;;;19.70;100.00
30421;BME280;17218;54.070;10.012;2023-07-13T08:28:04;101006.00;;;19.72;100.00
30421;BME280;17218;54.070;10.012;2023-07-13T08:30:30;101006.31;;;19.85;100.00
30421;BME280;17218;54.070;10.012;2023-07-13T08:32:57;101012.13;;;19.93;100.00
30421;BME280;17218;54.070;10.012;2023-07-13T08:35:23;101004.63;;;19.84;100.00
30421;BME280;17218;54.070;10.012;2023-07-13T08:37:50;101012.44;;;19.85;100.00
30421;BME280;17218;54.070;10.012;2023-07-13T08:40:19;101004.28;;;19.71;100.00
30421;BME280;17218;54.070;10.012;2023-07-13T08:42:53;101013.41;;;19.83;100.00
30421;BME280;17218;54.070;10.012;2023-07-13T08:45:23;101010.91;;;19.59;100.00
30421;BME280;17218;54.070;10.012;2023-07-13T08:47:54;101010.72;;;19.63;100.00
30421;BME280;17218;54.070;10.012;2023-07-13T08:50:25;101017.38;;;19.72;100.00
30421;BME280;17218;54.070;10.012;2023-07-13T08:52:54;101018.44;;;19.89;100.00
30421;BME280;17218;54.070;10.012;2023-07-13T08:55:26;101029.13;;;19.84;100.00
30421;BME280;17218;54.070;10.012;2023-07-13T08:57:57;101020.56;;;19.79;100.00
30421;BME280;17218;54.070;10.012;2023-07-13T09:00:43;101005.66;;;19.79;100.00
30421;BME280;17218;54.070;10.012;2023-07-13T09:03:18;101008.38;;;19.99;100.00
30421;BME280;17218;54.070;10.012;2023-07-13T09:05:51;101008.78;;;20.31;100.00
30421;BME280;17218;54.070;10.012;2023-07-13T09:08:36;101013.47;;;20.44;100.00
30421;BME280;17218;54.070;10.012;2023-07-13T09:11:17;101009.50;;;20.35;100.00
30421;BME280;17218;54.070;10.012;2023-07-13T09:13:53;101006.88;;;20.14;100.00
30421;BME280;17218;54.070;10.012;2023-07-13T09:16:25;101005.63;;;20.02;100.00
30421;BME280;17218;54.070;10.012;2023-07-13T09:18:56;101016.34;;;20.18;100.00
30421;BME280;17218;54.070;10.012;2023-07-13T09:21:30;101001.50;;;20.17;100.00
30421;BME280;17218;54.070;10.012;2023-07-13T09:27:02;101007.00;;;20.51;100.00
30421;BME280;17218;54.070;10.012;2023-07-13T09:29:36;101000.75;;;20.73;100.00
30421;BME280;17218;54.070;10.012;2023-07-13T09:32:12;100991.31;;;20.88;100.00
30421;BME280;17218;54.070;10.012;2023-07-13T09:34:40;101003.00;;;21.02;100.00
30421;BME280;17218;54.070;10.012;2023-07-13T09:37:07;100999.66;;;20.98;100.00
30421;BME280;17218;54.070;10.012;2023-07-13T09:39:37;100999.38;;;21.04;100.00
30421;BME280;17218;54.070;10.012;2023-07-13T09:42:11;100995.19;;;21.00;100.00
30421;BME280;17218;54.070;10.012;2023-07-13T09:44:51;101020.66;;;21.19;100.00
30421;BME280;17218;54.070;10.012;2023-07-13T09:47:21;101007.66;;;21.33;100.00
30421;BME280;17218;54.070;10.012;2023-07-13T09:49:54;101003.97;;;21.55;100.00
30421;BME280;17218;54.070;10.012;2023-07-13T09:52:21;101013.63;;;21.55;100.00
30421;BME280;17218;54.070;10.012;2023-07-13T09:54:51;101009.31;;;21.54;100.00
30421;BME280;17218;54.070;10.012;2023-07-13T09:57:23;101015.03;;;21.62;100.00
30421;BME280;17218;54.070;10.012;2023-07-13T09:59:52;101007.13;;;21.62;100.00
30421;BME280;17218;54.070;10.012;2023-07-13T10:02:27;101010.78;;;21.60;100.00
30421;BME280;17218;54.070;10.012;2023-07-13T10:05:00;101008.00;;;21.45;100.00
30421;BME280;17218;54.070;10.012;2023-07-13T10:07:29;101009.44;;;21.51;100.00
30421;BME280;17218;54.070;10.012;2023-07-13T10:09:57;101018.41;;;21.29;100.00
30421;BME280;17218;54.070;10.012;2023-07-13T10:12:26;101037.69;;;21.29;100.00
30421;BME280;17218;54.070;10.012;2023-07-13T10:14:55;101051.66;;;21.12;100.00
30421;BME280;17218;54.070;10.012;2023-07-13T10:17:29;101051.03;;;20.88;100.00
30421;BME280;17218;54.070;10.012;2023-07-13T10:19:59;101051.22;;;20.83;100.00
30421;BME280;17218;54.070;10.012;2023-07-13T10:22:36;101044.94;;;20.66;100.00
30421;BME280;17218;54.070;10.012;2023-07-13T10:25:14;101044.94;;;20.66;100.00
30421;BME280;17218;54.070;10.012;2023-07-13T10:27:41;101040.19;;;20.74;100.00
30421;BME280;17218;54.070;10.012;2023-07-13T10:30:13;101055.09;;;20.95;100.00
30421;BME280;17218;54.070;10.012;2023-07-13T10:32:42;101046.13;;;21.18;100.00
30421;BME280;17218;54.070;10.012;2023-07-13T10:35:12;101057.38;;;21.22;100.00
30421;BME280;17218;54.070;10.012;2023-07-13T10:37:43;101056.28;;;21.26;100.00
30421;BME280;17218;54.070;10.012;2023-07-13T10:40:14;101044.63;;;21.32;100.00
30421;BME280;17218;54.070;10.012;2023-07-13T10:42:45;101046.91;;;21.20;100.00
30421;BME280;17218;54.070;10.012;2023-07-13T10:45:14;101050.53;;;21.18;100.00
30421;BME280;17218;54.070;10.012;2023-07-13T10:47:43;101048.47;;;21.25;100.00
30421;BME280;17218;54.070;10.012;2023-07-13T10:50:16;101063.06;;;21.32;100.00
30421;BME280;17218;54.070;10.012;2023-07-13T10:52:46;101057.72;;;21.33;100.00
30421;BME280;17218;54.070;10.012;2023-07-13T10:55:32;101068.16;;;21.35;100.00
30421;BME280;17218;54.070;10.012;2023-07-13T10:58:03;101061.38;;;21.49;100.00
30421;BME280;17218;54.070;10.012;2023-07-13T11:00:44;101055.47;;;21.80;100.00
30421;BME280;17218;54.070;10.012;2023-07-13T11:03:17;101063.84;;;22.07;100.00
30421;BME280;17218;54.070;10.012;2023-07-13T11:05:48;101079.53;;;22.10;100.00
30421;BME280;17218;54.070;10.012;2023-07-13T11:08:20;101070.94;;;22.06;100.00
30421;BME280;17218;54.070;10.012;2023-07-13T11:10:50;101059.97;;;22.14;100.00
30421;BME280;17218;54.070;10.012;2023-07-13T11:13:37;101046.50;;;22.36;100.00
30421;BME280;17218;54.070;10.012;2023-07-13T11:16:13;101066.91;;;22.50;100.00
30421;BME280;17218;54.070;10.012;2023-07-13T11:18:44;101062.03;;;22.76;100.00
30421;BME280;17218;54.070;10.012;2023-07-13T11:21:16;101067.75;;;22.85;100.00
30421;BME280;17218;54.070;10.012;2023-07-13T11:23:44;101073.97;;;22.84;100.00
30421;BME280;17218;54.070;10.012;2023-07-13T11:26:38;101074.25;;;23.28;100.00
30421;BME280;17218;54.070;10.012;2023-07-13T11:29:08;101073.94;;;23.50;100.00
30421;BME280;17218;54.070;10.012;2023-07-13T11:31:36;101081.44;;;23.73;100.00
30421;BME280;17218;54.070;10.012;2023-07-13T11:34:13;101082.75;;;23.96;100.00
30421;BME280;17218;54.070;10.012;2023-07-13T11:36:43;101080.09;;;24.27;100.00
30421;BME280;17218;54.070;10.012;2023-07-13T11:39:17;101081.63;;;24.60;100.00
30421;BME280;17218;54.070;10.012;2023-07-13T11:41:46;101084.78;;;24.96;100.00
30421;BME280;17218;54.070;10.012;2023-07-13T11:44:18;101080.66;;;24.90;100.00
30421;BME280;17218;54.070;10.012;2023-07-13T11:46:47;101089.69;;;24.59;100.00
30421;BME280;17218;54.070;10.012;2023-07-13T11:49:20;101077.84;;;24.64;100.00
30421;BME280;17218;54.070;10.012;2023-07-13T11:51:47;101082.84;;;24.84;100.00
30421;BME280;17218;54.070;10.012;2023-07-13T11:54:24;101096.88;;;25.28;100.00
30421;BME280;17218;54.070;10.012;2023-07-13T11:56:53;101091.03;;;25.78;100.00
30421;BME280;17218;54.070;10.012;2023-07-13T11:59:21;101084.91;;;25.63;100.00
30421;BME280;17218;54.070;10.012;2023-07-13T12:01:54;101089.50;;;25.61;100.00
30421;BME280;17218;54.070;10.012;2023-07-13T12:04:25;101086.94;;;25.87;100.00
30421;BME280;17218;54.070;10.012;2023-07-13T12:06:57;101096.19;;;26.20;100.00
30421;BME280;17218;54.070;10.012;2023-07-13T12:09:27;101094.00;;;26.66;100.00
30421;BME280;17218;54.070;10.012;2023-07-13T12:11:57;101097.66;;;26.90;99.48
30421;BME280;17218;54.070;10.012;2023-07-13T12:14:24;101087.09;;;27.14;94.91
30421;BME280;17218;54.070;10.012;2023-07-13T12:16:52;101083.06;;;27.33;90.57
30421;BME280;17218;54.070;10.012;2023-07-13T12:19:22;101087.97;;;26.89;86.41
30421;BME280;17218;54.070;10.012;2023-07-13T12:21:53;101088.41;;;25.91;87.57
30421;BME280;17218;54.070;10.012;2023-07-13T12:24:21;101095.78;;;25.18;94.29
30421;BME280;17218;54.070;10.012;2023-07-13T12:26:53;101099.09;;;25.21;100.00
30421;BME280;17218;54.070;10.012;2023-07-13T12:29:19;101103.81;;;25.86;100.00
30421;BME280;17218;54.070;10.012;2023-07-13T12:31:47;101094.88;;;25.74;100.00
30421;BME280;17218;54.070;10.012;2023-07-13T12:34:16;101108.41;;;25.42;96.13
30421;BME280;17218;54.070;10.012;2023-07-13T12:36:47;101116.25;;;24.57;100.00
30421;BME280;17218;54.070;10.012;2023-07-13T12:39:18;101109.13;;;24.28;100.00
30421;BME280;17218;54.070;10.012;2023-07-13T12:41:46;101119.91;;;24.25;100.00